createdAt,value
2023-05-26T00:00:19.918Z,0
2023-05-26T00:01:36.183Z,0
2023-05-26T00:02:52.505Z,0
2023-05-26T00:04:08.785Z,0
2023-05-26T00:05:25.094Z,0
2023-05-26T00:06:41.364Z,0
2023-05-26T00:07:57.680Z,0
2023-05-26T00:09:13.000Z,0
2023-05-26T00:10:30.256Z,0
2023-05-26T00:11:45.000Z,0
2023-05-26T00:13:01.857Z,0
2023-05-26T00:14:18.135Z,0
2023-05-26T00:15:34.438Z,0
2023-05-26T00:16:50.000Z,0
2023-05-26T00:18:07.037Z,0
2023-05-26T00:19:23.322Z,0
2023-05-26T00:20:39.626Z,0
2023-05-26T00:21:55.000Z,0
2023-05-26T00:23:12.202Z,0
2023-05-26T00:24:28.496Z,0
2023-05-26T00:25:44.791Z,0
2023-05-26T00:27:01.078Z,0
2023-05-26T00:28:16.408Z,0
2023-05-26T00:29:32.683Z,0
2023-05-26T00:30:48.976Z,0
2023-05-26T00:32:05.267Z,0
2023-05-26T00:33:21.567Z,0
2023-05-26T00:34:37.860Z,0
2023-05-26T00:35:54.156Z,0
2023-05-26T00:37:10.453Z,0
2023-05-26T00:38:26.741Z,0
2023-05-26T00:39:43.028Z,0
2023-05-26T00:40:59.338Z,0
2023-05-26T00:42:15.609Z,0
2023-05-26T00:43:31.910Z,0
2023-05-26T00:44:47.217Z,0
2023-05-26T00:46:03.519Z,0
2023-05-26T00:47:19.806Z,0
2023-05-26T00:48:36.103Z,0
2023-05-26T00:49:52.409Z,0
2023-05-26T00:52:24.980Z,0
2023-05-26T00:53:41.274Z,0
2023-05-26T00:54:57.000Z,0
2023-05-26T00:56:13.860Z,0
2023-05-26T00:57:30.164Z,0
2023-05-26T00:58:46.461Z,0
2023-05-26T01:00:02.753Z,0
2023-05-26T01:01:18.064Z,0
2023-05-26T01:02:34.344Z,0
2023-05-26T01:03:50.643Z,0
2023-05-26T01:05:06.935Z,0
2023-05-26T01:06:23.221Z,0
2023-05-26T01:07:39.514Z,0
2023-05-26T01:08:55.814Z,0
2023-05-26T01:10:12.104Z,0
2023-05-26T01:11:28.401Z,0
2023-05-26T01:12:44.000Z,0
2023-05-26T01:14:00.991Z,0
2023-05-26T01:15:17.283Z,0
2023-05-26T01:16:33.567Z,0
2023-05-26T01:17:48.881Z,0
2023-05-26T01:19:05.187Z,0
2023-05-26T01:20:21.472Z,0
2023-05-26T01:21:37.774Z,0
2023-05-26T01:22:54.043Z,0
2023-05-26T01:24:10.359Z,0
2023-05-26T01:25:26.000Z,0
2023-05-26T01:26:42.939Z,0
2023-05-26T01:27:59.239Z,0
2023-05-26T01:29:15.529Z,0
2023-05-26T01:30:31.813Z,0
2023-05-26T01:31:48.106Z,0
2023-05-26T01:33:04.000Z,0
2023-05-26T01:34:19.709Z,0
2023-05-26T01:35:35.997Z,0
2023-05-26T01:36:52.301Z,0
2023-05-26T01:38:08.000Z,0
2023-05-26T01:39:24.884Z,0
2023-05-26T01:40:41.183Z,0
2023-05-26T01:41:57.479Z,0
2023-05-26T01:43:13.764Z,0
2023-05-26T01:44:30.058Z,0
2023-05-26T01:45:46.357Z,0
2023-05-26T01:47:02.645Z,0
2023-05-26T01:48:18.945Z,0
2023-05-26T01:49:35.243Z,0
2023-05-26T01:50:50.557Z,0
2023-05-26T01:52:06.840Z,0
2023-05-26T01:53:23.126Z,0
2023-05-26T01:54:39.426Z,0
2023-05-26T01:55:55.712Z,0
2023-05-26T01:57:12.010Z,0
2023-05-26T01:58:28.312Z,0
2023-05-26T01:59:44.608Z,0
2023-05-26T02:01:00.895Z,0
2023-05-26T02:02:17.184Z,0
2023-05-26T02:03:33.491Z,0
2023-05-26T02:04:49.772Z,0
2023-05-26T02:06:06.067Z,0
2023-05-26T02:07:21.389Z,0
2023-05-26T02:08:37.652Z,0
2023-05-26T02:09:53.974Z,0
2023-05-26T02:11:10.000Z,0
2023-05-26T02:12:26.546Z,0
2023-05-26T02:13:42.841Z,0
2023-05-26T02:14:58.169Z,0
2023-05-26T02:16:14.451Z,0
2023-05-26T02:17:30.748Z,0
2023-05-26T02:18:47.034Z,0
2023-05-26T02:20:03.332Z,0
2023-05-26T02:21:19.609Z,0
2023-05-26T02:22:35.923Z,0
2023-05-26T02:23:52.195Z,0
2023-05-26T02:25:08.502Z,0
2023-05-26T02:26:24.783Z,0
2023-05-26T02:27:41.093Z,0
2023-05-26T02:28:57.334Z,1
2023-05-26T02:30:13.583Z,1
2023-05-26T02:31:28.840Z,1
2023-05-26T02:32:45.075Z,1
2023-05-26T02:34:01.303Z,2
2023-05-26T02:35:17.554Z,2
2023-05-26T02:36:33.778Z,2
2023-05-26T02:37:50.026Z,1
2023-05-26T02:39:06.269Z,1
2023-05-26T02:40:22.507Z,2
2023-05-26T02:41:38.733Z,3
2023-05-26T02:42:54.980Z,4
2023-05-26T02:44:11.223Z,3
2023-05-26T02:46:43.686Z,5
2023-05-26T02:47:58.966Z,9
2023-05-26T02:49:15.198Z,9
2023-05-26T02:50:31.438Z,10
2023-05-26T02:51:47.666Z,13
2023-05-26T02:53:03.921Z,14
2023-05-26T02:54:20.000Z,18
2023-05-26T02:55:36.402Z,22
2023-05-26T02:56:52.625Z,26
2023-05-26T02:58:08.874Z,28
2023-05-26T02:59:25.094Z,31
2023-05-26T03:00:41.359Z,37
2023-05-26T03:01:57.567Z,42
2023-05-26T03:03:13.836Z,51
2023-05-26T03:04:29.080Z,53
2023-05-26T03:05:45.334Z,61
2023-05-26T03:07:01.571Z,65
2023-05-26T03:08:17.798Z,74
2023-05-26T03:09:34.051Z,87
2023-05-26T03:10:50.280Z,98
2023-05-26T03:12:06.524Z,108
2023-05-26T03:13:22.753Z,122
2023-05-26T03:14:38.986Z,137
2023-05-26T03:15:55.237Z,149
2023-05-26T03:17:11.479Z,160
2023-05-26T03:18:27.712Z,173
2023-05-26T03:19:43.950Z,199
2023-05-26T03:20:59.218Z,219
2023-05-26T03:22:15.448Z,232
2023-05-26T03:23:31.695Z,252
2023-05-26T03:24:47.924Z,267
2023-05-26T03:26:04.179Z,282
2023-05-26T03:27:20.403Z,304
2023-05-26T03:28:36.644Z,321
2023-05-26T03:29:52.899Z,342
2023-05-26T03:31:09.125Z,368
2023-05-26T03:32:25.361Z,388
2023-05-26T03:33:41.615Z,412
2023-05-26T03:34:57.859Z,432
2023-05-26T03:36:14.098Z,458
2023-05-26T03:37:29.329Z,479
2023-05-26T03:38:45.581Z,506
2023-05-26T03:40:01.801Z,530
2023-05-26T03:41:18.068Z,557
2023-05-26T03:42:34.296Z,582
2023-05-26T03:43:50.538Z,613
2023-05-26T03:46:23.026Z,669
2023-05-26T03:47:39.258Z,695
2023-05-26T03:48:55.501Z,727
2023-05-26T03:50:11.725Z,755
2023-05-26T03:51:27.983Z,785
2023-05-26T03:52:44.000Z,814
2023-05-26T03:53:59.465Z,848
2023-05-26T03:55:15.711Z,866
2023-05-26T03:56:31.958Z,903
2023-05-26T03:57:48.187Z,927
2023-05-26T03:59:04.439Z,952
2023-05-26T04:00:20.678Z,984
2023-05-26T04:01:36.901Z,1016
2023-05-26T04:02:53.127Z,1037
2023-05-26T04:04:09.391Z,1066
2023-05-26T04:05:25.617Z,1100
2023-05-26T04:06:41.859Z,1125
2023-05-26T04:07:58.098Z,1154
2023-05-26T04:09:14.325Z,1191
2023-05-26T04:10:29.607Z,1217
2023-05-26T04:11:45.842Z,1241
2023-05-26T04:13:02.078Z,1267
2023-05-26T04:14:18.312Z,1300
2023-05-26T04:15:34.560Z,1335
2023-05-26T04:16:50.793Z,1363
2023-05-26T04:18:07.013Z,1388
2023-05-26T04:19:23.278Z,1416
2023-05-26T04:20:39.498Z,1446
2023-05-26T04:21:55.768Z,1472
2023-05-26T04:23:12.000Z,1500
2023-05-26T04:24:28.229Z,1527
2023-05-26T04:25:44.467Z,1551
2023-05-26T04:26:59.000Z,1584
2023-05-26T04:28:15.000Z,1611
2023-05-26T04:29:32.213Z,1636
2023-05-26T04:30:48.427Z,1654
2023-05-26T04:32:04.692Z,1681
2023-05-26T04:33:20.933Z,1710
2023-05-26T04:34:37.166Z,1735
2023-05-26T04:35:53.000Z,1761
2023-05-26T04:37:09.658Z,1781
2023-05-26T04:38:25.887Z,1804
2023-05-26T04:39:42.126Z,1828
2023-05-26T04:40:58.363Z,1847
2023-05-26T04:42:14.598Z,1872
2023-05-26T04:43:29.842Z,1895
2023-05-26T04:44:46.094Z,1921
2023-05-26T04:46:02.341Z,1939
2023-05-26T04:47:18.575Z,1953
2023-05-26T04:48:34.826Z,1972
2023-05-26T04:49:51.056Z,1990
2023-05-26T04:51:07.305Z,2012
2023-05-26T04:52:23.548Z,2028
2023-05-26T04:53:39.782Z,2042
2023-05-26T04:54:56.024Z,2072
2023-05-26T04:56:12.000Z,2091
2023-05-26T04:57:28.486Z,2110
2023-05-26T04:58:44.731Z,2130
2023-05-26T04:59:59.996Z,2141
2023-05-26T05:01:16.000Z,2165
2023-05-26T05:02:32.474Z,2181
2023-05-26T05:03:48.721Z,2201
2023-05-26T05:05:04.951Z,2214
2023-05-26T05:06:21.166Z,2229
2023-05-26T05:07:37.436Z,2240
2023-05-26T05:08:53.643Z,2269
2023-05-26T05:10:09.910Z,2285
2023-05-26T05:11:26.000Z,2304
2023-05-26T05:12:42.392Z,2300
2023-05-26T05:13:58.631Z,2303
2023-05-26T05:15:14.858Z,2325
2023-05-26T05:16:30.117Z,2343
2023-05-26T05:17:46.366Z,2356
2023-05-26T05:19:02.602Z,2367
2023-05-26T05:20:18.837Z,2380
2023-05-26T05:21:35.000Z,2397
2023-05-26T05:22:51.326Z,2413
2023-05-26T05:24:07.549Z,2415
2023-05-26T05:25:23.798Z,2425
2023-05-26T05:26:40.027Z,2436
2023-05-26T05:27:56.267Z,2452
2023-05-26T05:29:12.511Z,2462
2023-05-26T05:30:28.759Z,2472
2023-05-26T05:31:45.000Z,2478
2023-05-26T05:33:00.257Z,2494
2023-05-26T05:34:16.485Z,2510
2023-05-26T05:35:32.734Z,2520
2023-05-26T05:36:48.000Z,2528
2023-05-26T05:38:05.205Z,2538
2023-05-26T05:39:21.453Z,2540
2023-05-26T05:40:37.693Z,2546
2023-05-26T05:43:10.169Z,2577
2023-05-26T05:44:26.383Z,2587
2023-05-26T05:45:42.650Z,2599
2023-05-26T05:46:58.858Z,2611
2023-05-26T05:48:15.124Z,2626
2023-05-26T05:49:30.375Z,2627
2023-05-26T05:50:46.629Z,2642
2023-05-26T05:52:02.868Z,2647
2023-05-26T05:53:19.099Z,2655
2023-05-26T05:54:35.341Z,2668
2023-05-26T05:55:51.572Z,2670
2023-05-26T05:57:07.000Z,2675
2023-05-26T05:58:24.051Z,2672
2023-05-26T05:59:40.000Z,2685
2023-05-26T06:00:56.538Z,2696
2023-05-26T06:02:12.782Z,2708
2023-05-26T06:03:29.009Z,2734
2023-05-26T06:04:45.000Z,2741
2023-05-26T06:06:00.000Z,2762
2023-05-26T06:07:16.000Z,2751
2023-05-26T06:08:32.995Z,2737
2023-05-26T06:09:49.223Z,2772
2023-05-26T06:11:05.469Z,2791
2023-05-26T06:12:21.686Z,2794
2023-05-26T06:13:37.944Z,2780
2023-05-26T06:14:54.000Z,2799
2023-05-26T06:16:10.428Z,2831
2023-05-26T06:17:26.000Z,2869
2023-05-26T06:18:42.891Z,2897
2023-05-26T06:19:59.000Z,2923
2023-05-26T06:21:15.386Z,2958
2023-05-26T06:22:30.636Z,2982
2023-05-26T06:23:46.873Z,3067
2023-05-26T06:25:03.000Z,2972
2023-05-26T06:26:19.352Z,3063
2023-05-26T06:27:35.000Z,2962
2023-05-26T06:28:51.000Z,3033
2023-05-26T06:30:07.000Z,3126
2023-05-26T06:31:23.329Z,3113
2023-05-26T06:32:39.000Z,3038
2023-05-26T06:33:55.812Z,3221
2023-05-26T06:35:12.022Z,3108
2023-05-26T06:36:28.000Z,3101
2023-05-26T06:37:44.000Z,3108
2023-05-26T06:39:00.776Z,3101
2023-05-26T06:40:17.000Z,3047
2023-05-26T06:41:33.000Z,3100
2023-05-26T06:42:49.000Z,3185
2023-05-26T06:44:05.736Z,3226
2023-05-26T06:45:21.961Z,3245
2023-05-26T06:46:37.231Z,3154
2023-05-26T06:47:53.000Z,3067
2023-05-26T06:49:09.000Z,2994
2023-05-26T06:50:25.000Z,2970
2023-05-26T06:51:42.000Z,3023
2023-05-26T06:52:58.000Z,3035
2023-05-26T06:54:14.668Z,3050
2023-05-26T06:55:30.000Z,3028
2023-05-26T06:56:47.143Z,3040
2023-05-26T06:58:03.000Z,3103
2023-05-26T06:59:19.000Z,3131
2023-05-26T07:00:35.000Z,3126
2023-05-26T07:01:52.000Z,3110
2023-05-26T07:03:07.000Z,3238
2023-05-26T07:04:23.587Z,3240
2023-05-26T07:05:39.000Z,3210
2023-05-26T07:06:56.072Z,3379
2023-05-26T07:08:12.000Z,3361
2023-05-26T07:09:28.000Z,3275
2023-05-26T07:10:44.000Z,3528
2023-05-26T07:12:01.029Z,3278
2023-05-26T07:13:17.000Z,3568
2023-05-26T07:14:33.000Z,3327
2023-05-26T07:15:49.000Z,3449
2023-05-26T07:17:06.000Z,3495
2023-05-26T07:18:22.232Z,3541
2023-05-26T07:19:37.488Z,3601
2023-05-26T07:20:53.725Z,3619
2023-05-26T07:22:09.958Z,3736
2023-05-26T07:23:49.000Z,3908
2023-05-26T07:25:58.000Z,3659
2023-05-26T07:27:38.000Z,3799
2023-05-26T07:28:31.000Z,3645
2023-05-26T07:29:47.398Z,3634
2023-05-26T07:31:03.636Z,3562
2023-05-26T07:32:19.872Z,3524
2023-05-26T07:33:36.000Z,3275
2023-05-26T07:35:15.000Z,3518
2023-05-26T07:36:07.000Z,3305
2023-05-26T07:37:23.837Z,3752
2023-05-26T07:38:40.000Z,3399
2023-05-26T07:39:56.322Z,3296
2023-05-26T07:41:12.559Z,3364
2023-05-26T07:42:28.803Z,3384
2023-05-26T07:43:45.000Z,3208
2023-05-26T07:45:01.000Z,3177
2023-05-26T07:46:17.000Z,3374
2023-05-26T07:47:33.759Z,3630
2023-05-26T07:48:50.000Z,3401
2023-05-26T07:50:29.000Z,3361
2023-05-26T07:51:22.472Z,3553
2023-05-26T07:52:37.729Z,3384
2023-05-26T07:54:17.000Z,3224
2023-05-26T07:55:10.000Z,3081
2023-05-26T07:56:26.000Z,3629
2023-05-26T07:57:42.000Z,3446
2023-05-26T07:58:58.927Z,3265
2023-05-26T08:00:15.000Z,3352
2023-05-26T08:01:31.000Z,3646
2023-05-26T08:02:47.644Z,3429
2023-05-26T08:04:03.882Z,3461
2023-05-26T08:05:43.000Z,3320
2023-05-26T08:06:36.000Z,3346
2023-05-26T08:07:52.000Z,3476
2023-05-26T08:09:07.000Z,3527
2023-05-26T08:10:24.103Z,3212
2023-05-26T08:11:40.000Z,3498
2023-05-26T08:13:19.000Z,3568
2023-05-26T08:14:12.000Z,3392
2023-05-26T08:15:29.057Z,2973
2023-05-26T08:17:08.000Z,3516
2023-05-26T08:18:01.543Z,3286
2023-05-26T08:19:17.000Z,3482
2023-05-26T08:20:34.000Z,3322
2023-05-26T08:21:50.000Z,3628
2023-05-26T08:23:06.000Z,3273
2023-05-26T08:24:22.000Z,3287
2023-05-26T08:25:37.985Z,3514
2023-05-26T08:26:54.233Z,3261
2023-05-26T08:28:33.000Z,3481
2023-05-26T08:29:26.686Z,3231
2023-05-26T08:30:42.000Z,3448
2023-05-26T08:31:59.000Z,3295
2023-05-26T08:33:15.000Z,3199
2023-05-26T08:34:31.000Z,3255
2023-05-26T08:35:47.915Z,3050
2023-05-26T08:37:04.150Z,3465
2023-05-26T08:38:20.381Z,3311
2023-05-26T08:39:59.000Z,3333
2023-05-26T08:40:52.872Z,3235
2023-05-26T08:42:31.000Z,3327
2023-05-26T08:43:24.325Z,3541
2023-05-26T08:44:40.000Z,3373
2023-05-26T08:45:56.833Z,2859
2023-05-26T08:47:13.000Z,3395
2023-05-26T08:48:29.000Z,3373
2023-05-26T08:49:45.000Z,3656
2023-05-26T08:51:25.000Z,3051
2023-05-26T08:52:18.040Z,3499
2023-05-26T08:53:57.000Z,2795
2023-05-26T08:54:50.000Z,3394
2023-05-26T08:56:06.748Z,3283
2023-05-26T08:57:22.000Z,3342
2023-05-26T08:58:38.242Z,3138
2023-05-26T08:59:54.000Z,3382
2023-05-26T09:01:10.000Z,3445
2023-05-26T09:02:50.000Z,2683
2023-05-26T09:03:43.213Z,3401
2023-05-26T09:05:22.000Z,3321
2023-05-26T09:06:15.680Z,3232
2023-05-26T09:07:31.000Z,3266
2023-05-26T09:08:48.000Z,3339
2023-05-26T09:10:27.000Z,3287
2023-05-26T09:11:20.644Z,3808
2023-05-26T09:12:36.887Z,2822
2023-05-26T09:13:53.118Z,3338
2023-05-26T09:15:31.000Z,3683
2023-05-26T09:16:24.000Z,2781
2023-05-26T09:17:40.000Z,3898
2023-05-26T09:18:57.000Z,2486
2023-05-26T09:20:13.314Z,3281
2023-05-26T09:21:52.000Z,3269
2023-05-26T09:22:45.000Z,3252
2023-05-26T09:24:02.060Z,3224
2023-05-26T09:25:18.276Z,3236
2023-05-26T09:26:34.545Z,3189
2023-05-26T09:27:50.000Z,3237
2023-05-26T09:29:07.019Z,3332
2023-05-26T09:30:23.000Z,3307
2023-05-26T09:31:38.000Z,3249
2023-05-26T09:32:54.734Z,3238
2023-05-26T09:34:11.006Z,3205
2023-05-26T09:35:27.000Z,3197
2023-05-26T09:36:43.478Z,3188
2023-05-26T09:37:59.690Z,3228
2023-05-26T09:39:15.961Z,3200
2023-05-26T09:40:55.000Z,3237
2023-05-26T09:41:48.432Z,3214
2023-05-26T09:43:04.000Z,3279
2023-05-26T09:44:44.000Z,3417
2023-05-26T09:45:37.000Z,3376
2023-05-26T09:46:53.394Z,3343
2023-05-26T09:48:08.620Z,3621
2023-05-26T09:49:24.892Z,3638
2023-05-26T09:50:41.122Z,3428
2023-05-26T09:51:57.363Z,3416
2023-05-26T09:53:13.580Z,3534
2023-05-26T09:54:29.846Z,3688
2023-05-26T09:55:46.000Z,3573
2023-05-26T09:57:02.317Z,3681
2023-05-26T09:58:18.000Z,3726
2023-05-26T09:59:58.000Z,3843
2023-05-26T10:00:51.000Z,3764
2023-05-26T10:02:07.000Z,3985
2023-05-26T10:03:23.000Z,3768
2023-05-26T10:04:38.781Z,3640
2023-05-26T10:05:55.000Z,3699
2023-05-26T10:07:11.238Z,3936
2023-05-26T10:08:27.000Z,2770
2023-05-26T10:09:43.000Z,3413
2023-05-26T10:11:23.000Z,3388
2023-05-26T10:12:16.193Z,3514
2023-05-26T10:13:32.404Z,3756
2023-05-26T10:15:12.000Z,4116
2023-05-26T10:16:04.921Z,4298
2023-05-26T10:17:21.148Z,4469
2023-05-26T10:18:37.360Z,4460
2023-05-26T10:19:53.641Z,4347
2023-05-26T10:21:08.890Z,4129
2023-05-26T10:22:48.000Z,4308
2023-05-26T10:23:41.330Z,3587
2023-05-26T10:25:20.000Z,3162
2023-05-26T10:26:13.000Z,3832
2023-05-26T10:27:30.081Z,4216
2023-05-26T10:28:46.000Z,4178
2023-05-26T10:30:25.000Z,3911
2023-05-26T10:31:18.795Z,4122
2023-05-26T10:32:35.000Z,3265
2023-05-26T10:33:51.275Z,3806
2023-05-26T10:35:07.530Z,3453
2023-05-26T10:36:23.000Z,3951
2023-05-26T10:38:02.000Z,3043
2023-05-26T10:38:55.000Z,3732
2023-05-26T10:40:11.500Z,3886
2023-05-26T10:41:27.000Z,4122
2023-05-26T10:42:43.965Z,3423
2023-05-26T10:44:00.222Z,3190
2023-05-26T10:45:15.481Z,3357
2023-05-26T10:46:31.706Z,3020
2023-05-26T10:47:47.000Z,3236
2023-05-26T10:49:04.000Z,3512
2023-05-26T10:50:20.000Z,3426
2023-05-26T10:51:36.662Z,3472
2023-05-26T10:52:52.915Z,3475
2023-05-26T10:54:09.000Z,3465
2023-05-26T10:55:25.386Z,3563
2023-05-26T10:56:41.630Z,4159
2023-05-26T10:57:57.860Z,2946
2023-05-26T10:59:14.114Z,3583
2023-05-26T11:00:30.350Z,3508
2023-05-26T11:01:45.565Z,3422
2023-05-26T11:03:01.835Z,3506
2023-05-26T11:04:18.081Z,3563
2023-05-26T11:05:34.322Z,3666
2023-05-26T11:06:50.533Z,3658
2023-05-26T11:08:06.801Z,3844
2023-05-26T11:09:23.034Z,3713
2023-05-26T11:10:39.282Z,3655
2023-05-26T11:11:55.511Z,3693
2023-05-26T11:13:11.757Z,3787
2023-05-26T11:14:27.000Z,3995
2023-05-26T11:15:44.231Z,3494
2023-05-26T11:17:00.429Z,2626
2023-05-26T11:18:15.726Z,3543
2023-05-26T11:19:31.923Z,3528
2023-05-26T11:20:48.197Z,3504
2023-05-26T11:22:04.000Z,3562
2023-05-26T11:23:20.685Z,3589
2023-05-26T11:24:36.918Z,3561
2023-05-26T11:25:53.000Z,3582
2023-05-26T11:27:09.000Z,3553
2023-05-26T11:28:25.627Z,3692
2023-05-26T11:29:41.876Z,3702
2023-05-26T11:30:58.073Z,3693
2023-05-26T11:32:14.343Z,3642
2023-05-26T11:33:30.585Z,3663
2023-05-26T11:34:45.000Z,3723
2023-05-26T11:36:02.078Z,3789
2023-05-26T11:37:18.323Z,3510
2023-05-26T11:38:34.573Z,3659
2023-05-26T11:39:50.000Z,3726
2023-05-26T11:41:07.042Z,3674
2023-05-26T11:42:23.281Z,3687
2023-05-26T11:43:39.532Z,3704
2023-05-26T11:44:55.753Z,3707
2023-05-26T11:46:11.992Z,3725
2023-05-26T11:47:28.000Z,3728
2023-05-26T11:48:44.472Z,3769
2023-05-26T11:50:00.718Z,3759
2023-05-26T11:51:15.980Z,3776
2023-05-26T11:52:32.215Z,3792
2023-05-26T11:53:48.442Z,3772
2023-05-26T11:55:04.646Z,3801
2023-05-26T11:56:20.932Z,3804
2023-05-26T11:57:37.167Z,3793
2023-05-26T11:58:53.410Z,3815
2023-05-26T12:00:09.648Z,3874
2023-05-26T12:01:25.869Z,3840
2023-05-26T12:02:42.000Z,3857
2023-05-26T12:03:58.352Z,3862
2023-05-26T12:05:14.588Z,3928
2023-05-26T12:06:30.835Z,3927
2023-05-26T12:07:46.063Z,3931
2023-05-26T12:09:02.328Z,3934
2023-05-26T12:10:18.560Z,3960
2023-05-26T12:11:34.818Z,3971
2023-05-26T12:12:51.049Z,4006
2023-05-26T12:14:07.288Z,3999
2023-05-26T12:15:23.521Z,4030
2023-05-26T12:17:55.965Z,4069
2023-05-26T12:19:12.249Z,4076
2023-05-26T12:20:28.480Z,4095
2023-05-26T12:21:44.677Z,4119
2023-05-26T12:23:00.951Z,4152
2023-05-26T12:24:16.223Z,4111
2023-05-26T12:25:32.453Z,4136
2023-05-26T12:26:48.706Z,4148
2023-05-26T12:28:04.929Z,4199
2023-05-26T12:29:21.183Z,4169
2023-05-26T12:30:37.370Z,4197
2023-05-26T12:31:53.656Z,4231
2023-05-26T12:33:09.890Z,4170
2023-05-26T12:34:26.129Z,4712
2023-05-26T12:35:42.372Z,3652
2023-05-26T12:36:58.602Z,4315
2023-05-26T12:38:14.861Z,4414
2023-05-26T12:39:31.089Z,4441
2023-05-26T12:40:46.355Z,4369
2023-05-26T12:42:02.581Z,4380
2023-05-26T12:43:18.000Z,4718
2023-05-26T12:44:35.066Z,4391
2023-05-26T12:45:51.000Z,4520
2023-05-26T12:47:07.502Z,3661
2023-05-26T12:48:23.000Z,4399
2023-05-26T12:49:40.000Z,4436
2023-05-26T12:50:56.258Z,4440
2023-05-26T12:52:12.492Z,4462
2023-05-26T12:53:52.000Z,4494
2023-05-26T12:55:08.000Z,4530
2023-05-26T12:56:24.000Z,4562
2023-05-26T12:57:39.000Z,4595
2023-05-26T12:58:32.000Z,4547
2023-05-26T12:59:48.962Z,4560
2023-05-26T13:01:05.189Z,4591
2023-05-26T13:02:21.421Z,4596
2023-05-26T13:04:01.000Z,4587
2023-05-26T13:04:53.000Z,4618
2023-05-26T13:06:10.143Z,4620
2023-05-26T13:07:26.383Z,4655
2023-05-26T13:08:42.000Z,4646
2023-05-26T13:09:58.875Z,4635
2023-05-26T13:11:15.065Z,4667
2023-05-26T13:12:54.000Z,4677
2023-05-26T13:13:46.555Z,4692
2023-05-26T13:15:02.847Z,4700
2023-05-26T13:16:42.000Z,4723
2023-05-26T13:17:58.000Z,4747
2023-05-26T13:18:51.511Z,4764
2023-05-26T13:20:31.000Z,4792
2023-05-26T13:21:47.000Z,4816
2023-05-26T13:22:40.274Z,4826
2023-05-26T13:24:19.000Z,4856
2023-05-26T13:25:12.754Z,4827
2023-05-26T13:26:29.004Z,4868
2023-05-26T13:28:08.000Z,4884
2023-05-26T13:29:24.000Z,4903
2023-05-26T13:30:16.724Z,4920
2023-05-26T13:31:56.000Z,4944
2023-05-26T13:32:49.201Z,4949
2023-05-26T13:34:05.413Z,4985
2023-05-26T13:37:01.000Z,5015
2023-05-26T13:37:54.170Z,5021
2023-05-26T13:39:10.400Z,5070
2023-05-26T13:40:26.648Z,5074
2023-05-26T13:41:42.885Z,5098
2023-05-26T13:42:59.123Z,5107
2023-05-26T13:44:38.000Z,5150
2023-05-26T13:45:31.604Z,5166
2023-05-26T13:47:10.000Z,5173
2023-05-26T13:48:03.085Z,5226
2023-05-26T13:49:42.000Z,5167
2023-05-26T13:50:35.569Z,5247
2023-05-26T13:51:51.821Z,5254
2023-05-26T13:53:08.048Z,5287
2023-05-26T13:54:24.287Z,5299
2023-05-26T13:56:03.000Z,5332
2023-05-26T13:56:56.770Z,5338
2023-05-26T13:58:13.007Z,5372
2023-05-26T13:59:29.245Z,5403
2023-05-26T14:00:45.484Z,5434
2023-05-26T14:02:01.678Z,5444
2023-05-26T14:03:16.986Z,5471
2023-05-26T14:04:33.225Z,5506
2023-05-26T14:05:49.461Z,5531
2023-05-26T14:07:29.000Z,5540
2023-05-26T14:08:21.935Z,5557
2023-05-26T14:09:38.171Z,5616
2023-05-26T14:11:17.000Z,5615
2023-05-26T14:12:10.627Z,5625
2023-05-26T14:13:26.889Z,5644
2023-05-26T14:15:06.000Z,5672
2023-05-26T14:15:59.383Z,5695
2023-05-26T14:17:15.618Z,5739
2023-05-26T14:18:55.000Z,5749
2023-05-26T14:20:10.000Z,5760
2023-05-26T14:21:03.342Z,5793
2023-05-26T14:22:42.000Z,5817
2023-05-26T14:23:35.835Z,5828
2023-05-26T14:25:15.000Z,5845
2023-05-26T14:26:31.000Z,5857
2023-05-26T14:27:24.541Z,5895
2023-05-26T14:28:40.774Z,5910
2023-05-26T14:29:57.022Z,5918
2023-05-26T14:31:13.271Z,5954
2023-05-26T14:32:52.902Z,5966
2023-05-26T14:34:09.000Z,6015
2023-05-26T14:35:25.000Z,6023
2023-05-26T14:36:17.245Z,6056
2023-05-26T14:37:56.000Z,6100
2023-05-26T14:38:49.717Z,6113
2023-05-26T14:40:29.000Z,6137
2023-05-26T14:41:45.000Z,6206
2023-05-26T14:42:38.422Z,6203
2023-05-26T14:43:54.675Z,6240
2023-05-26T14:45:34.000Z,6270
2023-05-26T14:46:27.151Z,6308
2023-05-26T14:48:06.000Z,6338
2023-05-26T14:48:59.627Z,6365
2023-05-26T14:50:39.000Z,6405
2023-05-26T14:51:32.114Z,6421
2023-05-26T14:53:10.000Z,6483
2023-05-26T14:54:03.600Z,6501
2023-05-26T14:55:19.833Z,6526
2023-05-26T14:56:59.000Z,6573
2023-05-26T14:58:15.000Z,6590
2023-05-26T14:59:08.553Z,6622
2023-05-26T15:00:47.000Z,6615
2023-05-26T15:01:40.050Z,6684
2023-05-26T15:02:56.297Z,6706
2023-05-26T15:04:35.000Z,6746
2023-05-26T15:05:28.776Z,6780
2023-05-26T15:06:45.013Z,6823
2023-05-26T15:08:01.254Z,6860
2023-05-26T15:09:17.455Z,6910
2023-05-26T15:10:57.000Z,6943
2023-05-26T15:11:49.928Z,6998
2023-05-26T15:13:06.214Z,7044
2023-05-26T15:14:22.455Z,7101
2023-05-26T15:16:02.000Z,7135
2023-05-26T15:16:53.956Z,7218
2023-05-26T15:18:10.132Z,7285
2023-05-26T15:19:26.423Z,7324
2023-05-26T15:20:42.670Z,7411
2023-05-26T15:21:58.897Z,7455
2023-05-26T15:23:38.000Z,7465
2023-05-26T15:24:31.385Z,7565
2023-05-26T15:26:11.000Z,7621
2023-05-26T15:27:27.000Z,7655
2023-05-26T15:28:20.093Z,7733
2023-05-26T15:29:36.341Z,7767
2023-05-26T15:31:15.000Z,7833
2023-05-26T15:32:08.814Z,7731
2023-05-26T15:33:24.074Z,3440
2023-05-26T15:34:40.266Z,7044
2023-05-26T15:35:56.560Z,75600
2023-05-26T15:37:12.742Z,75746
2023-05-26T15:38:29.028Z,75091
2023-05-26T15:39:45.263Z,74400
2023-05-26T15:41:01.459Z,27391
2023-05-26T15:42:17.744Z,23088
2023-05-26T15:43:57.000Z,75327
2023-05-26T15:44:50.227Z,75992
2023-05-26T15:46:06.470Z,74800
2023-05-26T15:47:22.716Z,75525
2023-05-26T15:48:38.940Z,75921
2023-05-26T15:50:17.000Z,76240
2023-05-26T15:51:10.446Z,73771
2023-05-26T15:52:50.000Z,24855
2023-05-26T15:53:42.870Z,75175
2023-05-26T15:54:59.170Z,75608
2023-05-26T15:56:15.394Z,75129
2023-05-26T15:57:31.640Z,75072
2023-05-26T15:58:47.887Z,74951
2023-05-26T16:00:04.129Z,74897
2023-05-26T16:01:20.359Z,76014
2023-05-26T16:02:36.604Z,75891
2023-05-26T16:03:52.840Z,74180
2023-05-26T16:05:09.070Z,25821
2023-05-26T16:06:24.341Z,22049
2023-05-26T16:07:40.571Z,75452
2023-05-26T16:08:56.766Z,75504
2023-05-26T16:10:13.006Z,75821
2023-05-26T16:11:29.288Z,76894
2023-05-26T16:12:45.532Z,76250
2023-05-26T16:14:01.776Z,75067
2023-05-26T16:15:18.017Z,75573
2023-05-26T16:16:34.244Z,77584
2023-05-26T16:17:50.500Z,76728
2023-05-26T16:19:06.677Z,75771
2023-05-26T16:20:22.967Z,76506
2023-05-26T16:21:39.212Z,75761
2023-05-26T16:22:54.466Z,75743
2023-05-26T16:24:10.696Z,75651
2023-05-26T16:25:26.955Z,76875
2023-05-26T16:26:43.186Z,76386
2023-05-26T16:27:59.376Z,76437
2023-05-26T16:29:39.000Z,77224
2023-05-26T16:30:31.910Z,76632
2023-05-26T16:32:11.000Z,77461
2023-05-26T16:33:04.384Z,77700
2023-05-26T16:34:20.574Z,76905
2023-05-26T16:35:36.855Z,76001
2023-05-26T16:36:53.056Z,75915
2023-05-26T16:38:09.340Z,76866
2023-05-26T16:39:48.000Z,74941
2023-05-26T16:40:40.848Z,22732
2023-05-26T16:42:20.000Z,78506
2023-05-26T16:43:13.269Z,76778
2023-05-26T16:44:52.000Z,76200
2023-05-26T16:45:45.796Z,77251
2023-05-26T16:47:25.000Z,75942
2023-05-26T16:48:18.282Z,77086
2023-05-26T16:49:34.515Z,76815
2023-05-26T16:51:14.000Z,76735
2023-05-26T16:52:06.993Z,77471
2023-05-26T16:53:46.000Z,75813
2023-05-26T16:54:39.475Z,75928
2023-05-26T16:55:54.746Z,18386
2023-05-26T16:57:10.917Z,76892
2023-05-26T16:58:27.212Z,74872
2023-05-26T17:00:06.000Z,23364
2023-05-26T17:01:23.000Z,19161
2023-05-26T17:02:15.937Z,19619
2023-05-26T17:03:32.179Z,17904
2023-05-26T17:04:48.000Z,17103
2023-05-26T17:06:28.000Z,75639
2023-05-26T17:07:20.891Z,22849
2023-05-26T17:09:00.000Z,19078
2023-05-26T17:09:53.321Z,18725
2023-05-26T17:11:09.607Z,19100
2023-05-26T17:12:24.873Z,20158
2023-05-26T17:13:41.119Z,21901
2023-05-26T17:14:57.349Z,20985
2023-05-26T17:16:13.000Z,20856
2023-05-26T17:17:53.000Z,21062
2023-05-26T17:18:46.079Z,20541